Pos.Doss.NomPrenomTempsVit.Moy.Allure Pos. cat�gCat�gorie Points Club
1 3555 SERVAIS ALEX 00:37:33 15.98 00:03:45 1Séniors 1000
2 34 MEMURLIN CHRISTOPHE 00:38:45 15.48 00:03:53 2Séniors 994 TEAM SOMJA
3 3399 REGNARD ANTOINE 00:38:58 15.4 00:03:54 3Séniors 989 CS CHAMONIX
4 3003 SPANU EDOUARD 00:39:14 15.29 00:03:55 1Vétérans 1 983
5 3283 GRENIER LAURENT 00:39:41 15.12 00:03:58 2Vétérans 1 977
6 3439 OLEFS ALFA 00:40:55 14.66 00:04:06 4Séniors 972
7 3428 VARETTO OLIVIER 00:41:54 14.32 00:04:11 3Vétérans 1 966
8 3588 DEMONTY NICOLAS 00:42:26 14.14 00:04:15 5Séniors 960 HERVE
9 6 EVRARD AMAURY 00:42:51 14 00:04:17 4Vétérans 1 955 TEAM SOMJA
10 2 TOSI IRENE 00:43:12 13.89 00:04:19 1Dames 949 JOG IN ATTITUDE
11 1 PHILIPPE PATRICK 00:43:12 13.89 00:04:19 1Vétérans 2 944 JOG IN ATTITUDE
12 3452 PREAUX TOM 00:43:15 13.87 00:04:20 6Séniors 938 PAS DE CLUB
13 3386 DEGEY NOAH 00:43:40 13.74 00:04:22 1Espoirs H 932 TRIGS
14 88 DEMIRCI ERSEN 00:43:46 13.71 00:04:23 7Séniors 927 PAS DE CLUB
15 3357 PIRLET SIMON 00:43:51 13.68 00:04:23 8Séniors 921 GRAMME
16 3394 BLEDIG CLAUDIO 00:44:07 13.6 00:04:25 9Séniors 915
17 3455 ZALESKI JULES 00:44:42 13.42 00:04:28 10Séniors 910
18 3573 MAX BENJAMIN 00:44:43 13.42 00:04:28 11Séniors 904 ILR
19 3355 SALMIN LOIC 00:44:49 13.39 00:04:29 12Séniors 898 ILR
20 3041 DELVENNE YANNICK 00:44:49 13.39 00:04:29 5Vétérans 1 893 I LOVE RUNNING
21 3125 LEDANT BRUNO 00:45:21 13.23 00:04:32 6Vétérans 1 887
22 3169 FRANCHIMONT PETRUS 00:45:30 13.19 00:04:33 13Séniors 881
23 115 GUISSART ALAIN 00:45:48 13.1 00:04:35 2Vétérans 2 876 PAS DE CLUB
24 3374 BERTRAND GUILHEM 00:45:55 13.07 00:04:36 14Séniors 870
25 3150 BIRTLES CYMON 00:45:58 13.05 00:04:36 3Vétérans 2 864
26 3193 ROSU MELANIE 00:46:15 12.97 00:04:38 1Ainées 1 859 FUNGYM
27 3170 SONTAG THIERRY 00:46:15 12.97 00:04:38 7Vétérans 1 853
28 3282 LEDUC LAURENT 00:46:42 12.85 00:04:40 15Séniors 847
29 3577 VAES SOPHIE 00:46:45 12.83 00:04:41 2Dames 842 TEAM MCP
30 114 LAMCHACHTI KALID 00:47:09 12.73 00:04:43 8Vétérans 1 836 JOG IN ATTITUDE
31 3035 LECOQ FRANCOIS 00:47:10 12.72 00:04:43 16Séniors 831
32 3176 BISSOT NICOLAS 00:47:17 12.69 00:04:44 9Vétérans 1 825 BTA
33 3342 FORTEMPS JULIEN 00:47:21 12.67 00:04:44 17Séniors 819
34 3235 FRAIKIN TOM 00:47:47 12.56 00:04:47 18Séniors 814
35 3070 DAMAS NICOLAS 00:48:02 12.49 00:04:48 19Séniors 808 TEAM MCP
36 3578 MIGNOLET GREGOIRE 00:48:03 12.49 00:04:48 20Séniors 802
37 3336 COHEN -SABBAN BRICE 00:48:16 12.43 00:04:50 21Séniors 797 ZATAC LIEGE
38 3433 SCHOONHEERE NICOLAS 00:48:16 12.43 00:04:50 10Vétérans 1 791
39 3589 BAIJOT ANTOINE 00:48:22 12.41 00:04:50 11Vétérans 1 785 BTA
40 7 GARIN YVES 00:48:35 12.35 00:04:52 12Vétérans 1 780 TEAM SOMJA
41 68 BALSAN LUC 00:48:49 12.29 00:04:53 4Vétérans 2 774 ATHLETISME MEHAGNE CLUB
42 3444 ACQUISTAPACE SARAH 00:48:56 12.26 00:04:54 3Dames 768 SERAING ATHLETISME
43 3445 FRERE SEBASTIEN 00:49:00 12.24 00:04:54 13Vétérans 1 763 CHALLENGE L AVENIR
44 20 BOUVIER NICOLAS 00:49:19 12.17 00:04:56 22Séniors 757
45 3560 JOSIS NICOLAS 00:49:23 12.15 00:04:56 14Vétérans 1 751
46 3311 CARRE CLAUDE 00:49:27 12.13 00:04:57 5Vétérans 2 746 CIGNE 69
47 3454 HERNIK RAFAEL 00:49:29 12.13 00:04:57 15Vétérans 1 740
48 124 EVRARD ROLAND 00:49:49 12.04 00:04:59 16Vétérans 1 734 PAS DE CLUB
49 3325 POLLENUS THOMAS 00:49:56 12.02 00:04:60 23Séniors 729
50 14 CUPPENS BENOIT 00:50:15 11.94 00:05:02 17Vétérans 1 723 PAS DE CLUB
51 3147 DE LUCA ANTHONY 00:50:17 11.93 00:05:02 24Séniors 718
52 3071 DE FLORIAN MATTEO 00:50:41 11.84 00:05:04 2Espoirs H 712
53 136 PERIN MARC 00:50:54 11.79 00:05:05 6Vétérans 2 706
54 3576 MEURAY ISABELLE 00:50:57 11.78 00:05:06 1Ainées 2 701 RFCL
55 3037 EPPE GUILLAUME 00:51:15 11.71 00:05:08 25Séniors 695
56 36 BYNENS NICOLAS 00:51:16 11.7 00:05:08 1Vétérans 3 689 JUPRELLE JOGGING
57 3412 COULON PIERRE 00:51:22 11.68 00:05:08 18Vétérans 1 684
58 3417 RIVEIRO MIGUEL 00:51:41 11.61 00:05:10 26Séniors 678
59 3331 CREZ ERIC 00:51:41 11.61 00:05:10 2Vétérans 3 672
60 3321 DARDENNE NICO 00:51:45 11.59 00:05:11 27Séniors 667
61 3240 BALAZUN ALIZEE 00:52:03 11.53 00:05:12 4Dames 661 JCH
62 3131 ROUSSEAUX RACHEL 00:52:04 11.52 00:05:12 5Dames 655
63 3432 LANGERÔME BERNARD 00:52:05 11.52 00:05:13 3Vétérans 3 650 JOGGING CLUB HERSTAL
64 3089 HENNEAUX DOMINIQUE 00:52:10 11.5 00:05:13 19Vétérans 1 644
65 3429 HORRION GEOFFREY 00:52:16 11.48 00:05:14 28Séniors 638
66 403 KERIS MONIQUE 00:52:22 11.46 00:05:14 2Ainées 2 633 RUN IN LIEGE
67 3109 LEONARD ROSEMONDE 00:52:26 11.44 00:05:15 6Dames 627 CO,LIEGE
68 3198 HOMOLA BENOÎT 00:52:27 11.44 00:05:15 29Séniors 621
69 207 MATAGNE GEOFFREY 00:52:46 11.37 00:05:17 30Séniors 616
70 3149 MOTTEN JAMES 00:52:49 11.36 00:05:17 20Vétérans 1 610
71 3174 HAWOTTE MARINE 00:52:57 11.33 00:05:18 7Dames 605 TEAM MCP
72 3025 GODARD MAXENCE 00:53:01 11.32 00:05:18 31Séniors 599 RESA
73 3100 WEHENKEL THOMAS 00:53:02 11.31 00:05:18 32Séniors 593 RESA
74 261 DELHEZ CLAUDE 00:53:03 11.31 00:05:18 4Vétérans 3 588 RUN IN LIEGE
75 3443 DEBART MICHAEL 00:53:23 11.24 00:05:20 33Séniors 582
76 3196 GERARD CHRISTOPHE 00:53:24 11.24 00:05:20 34Séniors 576
77 210 STAS JEAN-PIERRE 00:53:26 11.23 00:05:21 7Vétérans 2 571 PAS DE CLUB
78 3556 ARGIMAN ALBERT 00:53:40 11.18 00:05:22 35Séniors 565 BOXING BOXTAIL CLUB
79 3173 TACK JEROEN 00:53:58 11.12 00:05:24 36Séniors 559
80 3249 DURGTEL LAURENT 00:54:00 11.11 00:05:24 37Séniors 554 RESA
81 59 BURNIAT OLIVIER 00:54:49 10.95 00:05:29 38Séniors 548 AUTRE
82 3197 KASSIN VICTOR-EMMANUEL 00:55:06 10.89 00:05:31 39Séniors 542
83 58 RASSAA RAFIK 00:55:09 10.88 00:05:31 21Vétérans 1 537 PAS DE CLUB
84 3403 CORUERS GEOFFREY 00:55:19 10.85 00:05:32 40Séniors 531
85 3361 NYSSEN SYLVIE 00:55:25 10.83 00:05:33 2Ainées 1 525
86 3328 MATHUES JEAN-FRANCOIS 00:55:28 10.82 00:05:33 41Séniors 520
87 3446 DISTER JEAN FRANCOIS 00:55:28 10.82 00:05:33 22Vétérans 1 514 PAS DE CLUB
88 3068 AZZARELLO MARVIN 00:55:37 10.79 00:05:34 42Séniors 508
89 3244 BRUEL GUILLAUME 00:55:37 10.79 00:05:34 43Séniors 503
90 3069 EPPE NICOLAS 00:55:41 10.78 00:05:34 3Espoirs H 497
91 3087 JOLET SOPHIE 00:55:57 10.72 00:05:36 8Dames 492
92 3453 TERWAGNE PIERRE 00:56:05 10.7 00:05:37 23Vétérans 1 486 PAS DE CLUB
93 54 DUSSARD MAYA 00:56:23 10.64 00:05:38 1Espoirs D 480 JOG IN ATTITUDE
94 3313 DEVILLERS THIERRY 00:56:26 10.63 00:05:39 24Vétérans 1 475 COCOACH
95 52 PIFFET JOSS 00:56:28 10.63 00:05:39 44Séniors 469 PAS DE CLUB
96 3103 VANDEWALLE GILLES 00:56:32 10.61 00:05:39 25Vétérans 1 463
97 351 ROUFOSSE JOEFREY 00:56:41 10.59 00:05:40 8Vétérans 2 458 RIL
98 3557 DEBEHOGNE LAUREEN 00:56:49 10.56 00:05:41 9Dames 452
99 203 DIO CALOGERO 00:57:10 10.5 00:05:43 26Vétérans 1 446 JIA
100 3382 MICHEL BENJAMIN 00:57:18 10.47 00:05:44 27Vétérans 1 441 BTA
101 3380 COLLARD PASCAL 00:57:20 10.47 00:05:44 9Vétérans 2 435
102 3137 VANDENBORNE EMILIE 00:57:21 10.46 00:05:44 10Dames 429
103 118 SOMJA FLORENCE 00:57:23 10.46 00:05:44 11Dames 424 JOG IN ATTITUDE
104 61 WOOLF ALAN 00:57:37 10.41 00:05:46 5Vétérans 3 418 CHALLENGE L AVENIR
105 3559 DEDRY CHRISTOPHE 00:57:39 10.41 00:05:46 28Vétérans 1 412
106 3178 D OVIDIO RAPHAEL 00:58:30 10.26 00:05:51 29Vétérans 1 407
107 3194 KRZEWINSKI LAURENT 00:58:31 10.25 00:05:51 30Vétérans 1 401 JTS BLANCP GILET
108 3324 MICHEL THOMAS 00:58:44 10.22 00:05:52 45Séniors 395
109 3306 MERTENS CHRISTOPHE 00:58:52 10.19 00:05:53 31Vétérans 1 390
110 3151 BECKERS ALEX 00:58:55 10.18 00:05:54 46Séniors 384 NESS 22
111 144 FERNANDEZ HERRERA BERNARD 00:59:19 10.12 00:05:56 10Vétérans 2 379 SODEXO RUN
112 3031 LENART BENOIT 00:59:27 10.09 00:05:57 11Vétérans 2 373
113 3160 GRANDMAISON EMMANUEL 00:59:32 10.08 00:05:57 12Vétérans 2 367
114 3097 HUPPERTZ JULIA 00:59:35 10.07 00:05:58 12Dames 362
115 3332 DUFOUR BORIS 00:59:36 10.07 00:05:58 47Séniors 356
116 3383 ZANIMOTTI THOMAS 00:59:39 10.06 00:05:58 48Séniors 350 NESS 22
117 3393 FERNANDEZ HERRERA JULIEN 01:00:08 9.98 00:06:01 49Séniors 345
118 3585 COENEN CAMILLE 01:00:14 9.96 00:06:01 13Dames 339
119 3587 VAN DE VOORDE QUENTIN 01:00:14 9.96 00:06:01 50Séniors 333
120 3199 DIET GREGORY 01:00:20 9.94 00:06:02 32Vétérans 1 328
121 3033 KARYDAS IOANNIS 01:00:37 9.9 00:06:04 51Séniors 322
122 5 MATHOT RICHARD 01:00:56 9.85 00:06:06 6Vétérans 3 316 RFCL ATHLETISME
123 3298 DUFOUR RENÉ 01:01:09 9.81 00:06:07 7Vétérans 3 311
124 3583 SAUVAGE MAXIME 01:01:18 9.79 00:06:08 52Séniors 305
125 3115 LABOULE JEAN-FRANCOIS 01:01:56 9.69 00:06:12 53Séniors 299
126 3042 KRIER SEBASTIEN 01:02:06 9.66 00:06:13 33Vétérans 1 294
127 3183 RIVEIRO ANGÉLIQUE 01:02:11 9.65 00:06:13 14Dames 288
128 3329 KRIESCHER THIBAULT 01:02:18 9.63 00:06:14 54Séniors 282
129 3367 SCHYNS LORA 01:02:18 9.63 00:06:14 15Dames 277
130 62 PATOUT ARNAUD 01:02:24 9.62 00:06:14 34Vétérans 1 271 LGS
131 3339 LAUREYS CÉLINE 01:02:24 9.62 00:06:14 16Dames 266
132 3181 TRATSAERT GREGORY 01:02:48 9.55 00:06:17 55Séniors 260 EVO22
133 3164 BRICTEUX LUCIE 01:02:48 9.55 00:06:17 17Dames 254
134 3998 LECOQ CAMILLE 01:02:51 9.55 00:06:17 18Dames 249
135 3058 HUSQUINET SEBASTIEN 01:02:53 9.54 00:06:17 35Vétérans 1 243
136 3384 KRIER MARTIN 01:02:57 9.53 00:06:18 4Espoirs H 237
137 3102 PIRARD SEVERINE 01:03:20 9.47 00:06:20 3Ainées 1 232 RDV RUN
138 126 PITCHOT CLAUDE 01:03:20 9.47 00:06:20 36Vétérans 1 226 RDV RUN
139 3365 STRUB JEAN 01:03:22 9.47 00:06:20 37Vétérans 1 220
140 3348 MEUNIER DAVID 01:03:38 9.43 00:06:22 13Vétérans 2 215
141 3388 DENIS VINCENT 01:03:47 9.41 00:06:23 56Séniors 209
142 134 TANASE ARIELLE 01:03:49 9.4 00:06:23 3Ainées 2 203 JOG IN ATTITUDE
143 3161 RADERMECKER PAULINE 01:03:49 9.4 00:06:23 19Dames 198
144 147 RYSENAER JEAN 01:04:18 9.33 00:06:26 1Vétérans 4 192 PAS DE CLUB
145 3404 BONNA VALERIE 01:05:08 9.21 00:06:31 4Ainées 2 186
146 3571 QUOIDBACH SIMON 01:06:05 9.08 00:06:37 5Espoirs H 181 ZATAC LIEGE
147 3340 IMPEDOVO SEBASTIEN 01:06:37 9.01 00:06:40 57Séniors 175
148 3085 NELIS BENOIT 01:07:06 8.94 00:06:43 14Vétérans 2 169 JCPMF
149 3363 UNITONZE AUDIFAX 01:07:25 8.9 00:06:45 58Séniors 164
150 3038 MANGEANTS AXELLE 01:07:26 8.9 00:06:45 4Ainées 1 158
151 3057 MEURENS SOPHIE 01:07:30 8.89 00:06:45 20Dames 153 I LOVE RUNNING
152 3005 PAMPALONE FRÉDÉRIC 01:07:31 8.89 00:06:45 59Séniors 147
153 3564 BRACH CHARLINE 01:07:32 8.88 00:06:45 21Dames 141
154 3566 SPRUMONT JULIE 01:07:33 8.88 00:06:45 22Dames 136
155 3567 LAMINE MAGALI 01:07:33 8.88 00:06:45 5Ainées 1 130
156 3563 LIEGEOIS CHARLINE 01:07:34 8.88 00:06:45 23Dames 124
157 345 GHILAIN ANDRE 01:08:39 8.74 00:06:52 8Vétérans 3 119 RUN IN LIEGE
158 3246 BETTIOL FLORA 01:08:49 8.72 00:06:53 6Ainées 1 113 JIA
159 3334 AGIRMAN SUHEYLA 01:09:23 8.65 00:06:56 7Ainées 1 107
160 3280 VANDER HEYDEN ALAIN 01:09:38 8.62 00:06:58 15Vétérans 2 102 JIA
161 3177 CORBISIER YVES-ERIC 01:10:52 8.47 00:07:05 38Vétérans 1 96
162 3569 ROCCA AMELIA 01:11:28 8.4 00:07:09 8Ainées 1 90 ZATOPEK ET RIL
163 3415 BILLAR HENRI 01:11:36 8.38 00:07:010 60Séniors 85
164 3437 ANTOINE PAULINE 01:12:00 8.33 00:07:12 24Dames 79
165 3370 LALOUX EMILIE 01:12:01 8.33 00:07:12 25Dames 73
166 3312 LIST ELENA 01:12:07 8.32 00:07:13 26Dames 68
167 3192 CLOES LAURENCE 01:12:07 8.32 00:07:13 9Ainées 1 62
168 3119 HUMBLET ÉRIC 01:12:31 8.27 00:07:15 9Vétérans 3 56 CO LIÈGE
169 3997 MAESSEN SEBASTIAN 01:12:37 8.26 00:07:16 39Vétérans 1 51 BOLT
170 3252 FRANCOIS CINDY 01:12:37 8.26 00:07:16 10Ainées 1 45 BOLT
171 3554 KHALID SALWA 01:13:02 8.22 00:07:18 61Séniors 40
172 3040 GEURTS DOLORES 01:14:03 8.1 00:07:24 11Ainées 1 34
173 102 NIZET PASCAL 01:15:05 7.99 00:07:31 16Vétérans 2 28
174 3381 DURUISSEAU JUSTINE 01:16:29 7.84 00:07:39 27Dames 23
175 3369 AMKRAN YASSIN 01:16:29 7.84 00:07:39 40Vétérans 1 17
176 3028 OLTEAN LAURA 01:43:42 5.79 00:10:22 12Ainées 1 11
177 3327 SINNAEVE ISABEL 01:43:42 5.79 00:10:22 13Ainées 1 6
Corrida des Remparts 2022
Distance : 10.0 kms
177 coureurs
Normal Interclubs